sensor_id;sensor_type;location;lat;lon;timestamp;P1;durP1;ratioP1;P2;durP2;ratioP2
11222;SDS011;5668;52.012;8.724;2023-06-10T00:01:47;5.63;;;4.95;;
11222;SDS011;5668;52.012;8.724;2023-06-10T00:04:14;6.97;;;5.03;;
11222;SDS011;5668;52.012;8.724;2023-06-10T00:06:42;5.60;;;4.97;;
11222;SDS011;5668;52.012;8.724;2023-06-10T00:09:10;6.13;;;4.40;;
11222;SDS011;5668;52.012;8.724;2023-06-10T00:11:40;4.63;;;4.22;;
11222;SDS011;5668;52.012;8.724;2023-06-10T00:14:08;5.55;;;5.03;;
11222;SDS011;5668;52.012;8.724;2023-06-10T00:16:36;7.43;;;4.97;;
11222;SDS011;5668;52.012;8.724;2023-06-10T00:19:03;8.60;;;4.40;;
11222;SDS011;5668;52.012;8.724;2023-06-10T00:21:33;5.00;;;4.47;;
11222;SDS011;5668;52.012;8.724;2023-06-10T00:24:02;4.95;;;4.45;;
11222;SDS011;5668;52.012;8.724;2023-06-10T00:26:31;5.40;;;4.30;;
11222;SDS011;5668;52.012;8.724;2023-06-10T00:29:00;4.45;;;3.88;;
11222;SDS011;5668;52.012;8.724;2023-06-10T00:31:28;4.90;;;4.25;;
11222;SDS011;5668;52.012;8.724;2023-06-10T00:33:55;5.50;;;4.38;;
11222;SDS011;5668;52.012;8.724;2023-06-10T00:36:23;5.03;;;4.00;;
11222;SDS011;5668;52.012;8.724;2023-06-10T00:38:51;5.18;;;4.65;;
11222;SDS011;5668;52.012;8.724;2023-06-10T00:41:19;4.55;;;4.03;;
11222;SDS011;5668;52.012;8.724;2023-06-10T00:43:46;5.65;;;3.92;;
11222;SDS011;5668;52.012;8.724;2023-06-10T00:46:15;4.88;;;4.15;;
11222;SDS011;5668;52.012;8.724;2023-06-10T00:48:43;5.93;;;4.50;;
11222;SDS011;5668;52.012;8.724;2023-06-10T00:51:12;5.70;;;4.55;;
11222;SDS011;5668;52.012;8.724;2023-06-10T00:53:40;5.22;;;4.10;;
11222;SDS011;5668;52.012;8.724;2023-06-10T00:56:08;6.47;;;4.88;;
11222;SDS011;5668;52.012;8.724;2023-06-10T00:58:36;6.63;;;4.72;;
11222;SDS011;5668;52.012;8.724;2023-06-10T01:01:04;6.07;;;5.28;;
11222;SDS011;5668;52.012;8.724;2023-06-10T01:03:32;6.32;;;5.03;;
11222;SDS011;5668;52.012;8.724;2023-06-10T01:06:04;5.15;;;4.43;;
11222;SDS011;5668;52.012;8.724;2023-06-10T01:08:38;7.80;;;4.72;;
11222;SDS011;5668;52.012;8.724;2023-06-10T01:11:14;5.25;;;4.38;;
11222;SDS011;5668;52.012;8.724;2023-06-10T01:13:45;6.18;;;4.97;;
11222;SDS011;5668;52.012;8.724;2023-06-10T01:16:17;5.72;;;4.88;;
11222;SDS011;5668;52.012;8.724;2023-06-10T01:18:46;5.95;;;5.00;;
11222;SDS011;5668;52.012;8.724;2023-06-10T01:21:19;5.07;;;4.43;;
11222;SDS011;5668;52.012;8.724;2023-06-10T01:23:50;6.20;;;5.60;;
11222;SDS011;5668;52.012;8.724;2023-06-10T01:26:18;6.85;;;4.90;;
11222;SDS011;5668;52.012;8.724;2023-06-10T01:28:51;6.53;;;4.97;;
11222;SDS011;5668;52.012;8.724;2023-06-10T01:31:30;5.43;;;4.93;;
11222;SDS011;5668;52.012;8.724;2023-06-10T01:34:05;7.15;;;5.18;;
11222;SDS011;5668;52.012;8.724;2023-06-10T01:36:38;6.07;;;4.78;;
11222;SDS011;5668;52.012;8.724;2023-06-10T01:39:06;6.13;;;5.03;;
11222;SDS011;5668;52.012;8.724;2023-06-10T01:41:36;7.65;;;4.95;;
11222;SDS011;5668;52.012;8.724;2023-06-10T01:44:06;7.20;;;5.05;;
11222;SDS011;5668;52.012;8.724;2023-06-10T01:46:33;5.53;;;4.97;;
11222;SDS011;5668;52.012;8.724;2023-06-10T01:49:00;6.95;;;4.78;;
11222;SDS011;5668;52.012;8.724;2023-06-10T01:51:28;6.70;;;4.90;;
11222;SDS011;5668;52.012;8.724;2023-06-10T01:53:58;6.95;;;5.05;;
11222;SDS011;5668;52.012;8.724;2023-06-10T01:56:25;5.70;;;5.15;;
11222;SDS011;5668;52.012;8.724;2023-06-10T01:58:52;7.45;;;5.75;;
11222;SDS011;5668;52.012;8.724;2023-06-10T02:01:24;4.90;;;4.50;;
11222;SDS011;5668;52.012;8.724;2023-06-10T02:03:51;5.47;;;4.63;;
11222;SDS011;5668;52.012;8.724;2023-06-10T02:06:19;6.35;;;4.70;;
11222;SDS011;5668;52.012;8.724;2023-06-10T02:08:46;5.65;;;5.03;;
11222;SDS011;5668;52.012;8.724;2023-06-10T02:11:15;7.70;;;5.30;;
11222;SDS011;5668;52.012;8.724;2023-06-10T02:13:42;7.03;;;4.90;;
11222;SDS011;5668;52.012;8.724;2023-06-10T02:16:10;5.18;;;4.30;;
11222;SDS011;5668;52.012;8.724;2023-06-10T02:18:38;5.00;;;4.45;;
11222;SDS011;5668;52.012;8.724;2023-06-10T02:21:08;4.90;;;4.20;;
11222;SDS011;5668;52.012;8.724;2023-06-10T02:23:35;5.78;;;4.30;;
11222;SDS011;5668;52.012;8.724;2023-06-10T02:26:03;6.15;;;5.10;;
11222;SDS011;5668;52.012;8.724;2023-06-10T02:28:32;6.28;;;4.45;;
11222;SDS011;5668;52.012;8.724;2023-06-10T02:30:59;5.90;;;4.22;;
11222;SDS011;5668;52.012;8.724;2023-06-10T02:33:26;4.72;;;4.32;;
11222;SDS011;5668;52.012;8.724;2023-06-10T02:35:54;6.50;;;4.07;;
11222;SDS011;5668;52.012;8.724;2023-06-10T02:38:22;6.95;;;4.50;;
11222;SDS011;5668;52.012;8.724;2023-06-10T02:40:49;5.22;;;4.35;;
11222;SDS011;5668;52.012;8.724;2023-06-10T02:43:16;6.07;;;4.40;;
11222;SDS011;5668;52.012;8.724;2023-06-10T02:45:45;4.65;;;4.25;;
11222;SDS011;5668;52.012;8.724;2023-06-10T02:48:13;7.53;;;5.10;;
11222;SDS011;5668;52.012;8.724;2023-06-10T02:50:40;5.85;;;4.85;;
11222;SDS011;5668;52.012;8.724;2023-06-10T02:53:07;6.32;;;4.97;;
11222;SDS011;5668;52.012;8.724;2023-06-10T02:55:35;5.25;;;4.75;;
11222;SDS011;5668;52.012;8.724;2023-06-10T02:58:03;6.40;;;4.90;;
11222;SDS011;5668;52.012;8.724;2023-06-10T03:00:30;5.95;;;4.40;;
11222;SDS011;5668;52.012;8.724;2023-06-10T03:02:59;5.07;;;4.57;;
11222;SDS011;5668;52.012;8.724;2023-06-10T03:05:28;6.03;;;4.57;;
11222;SDS011;5668;52.012;8.724;2023-06-10T03:07:56;4.72;;;4.18;;
11222;SDS011;5668;52.012;8.724;2023-06-10T03:10:23;7.28;;;4.63;;
11222;SDS011;5668;52.012;8.724;2023-06-10T03:12:50;5.13;;;4.57;;
11222;SDS011;5668;52.012;8.724;2023-06-10T03:15:18;5.55;;;4.88;;
11222;SDS011;5668;52.012;8.724;2023-06-10T03:17:45;4.90;;;4.45;;
11222;SDS011;5668;52.012;8.724;2023-06-10T03:20:15;6.10;;;4.95;;
11222;SDS011;5668;52.012;8.724;2023-06-10T03:22:43;7.65;;;4.85;;
11222;SDS011;5668;52.012;8.724;2023-06-10T03:25:10;5.50;;;5.00;;
11222;SDS011;5668;52.012;8.724;2023-06-10T03:27:39;7.47;;;5.10;;
11222;SDS011;5668;52.012;8.724;2023-06-10T03:30:06;4.80;;;4.32;;
11222;SDS011;5668;52.012;8.724;2023-06-10T03:32:35;5.90;;;4.57;;
11222;SDS011;5668;52.012;8.724;2023-06-10T03:35:03;5.43;;;4.93;;
11222;SDS011;5668;52.012;8.724;2023-06-10T03:37:33;5.30;;;4.70;;
11222;SDS011;5668;52.012;8.724;2023-06-10T03:40:00;5.97;;;5.00;;
11222;SDS011;5668;52.012;8.724;2023-06-10T03:42:28;5.05;;;4.60;;
11222;SDS011;5668;52.012;8.724;2023-06-10T03:44:56;6.60;;;4.40;;
11222;SDS011;5668;52.012;8.724;2023-06-10T03:47:23;4.97;;;4.43;;
11222;SDS011;5668;52.012;8.724;2023-06-10T03:49:50;6.65;;;4.80;;
11222;SDS011;5668;52.012;8.724;2023-06-10T03:52:19;5.15;;;4.18;;
11222;SDS011;5668;52.012;8.724;2023-06-10T03:54:47;4.88;;;4.40;;
11222;SDS011;5668;52.012;8.724;2023-06-10T03:57:15;5.78;;;4.70;;
11222;SDS011;5668;52.012;8.724;2023-06-10T03:59:42;6.10;;;4.70;;
11222;SDS011;5668;52.012;8.724;2023-06-10T04:02:09;5.22;;;4.35;;
11222;SDS011;5668;52.012;8.724;2023-06-10T04:04:37;6.22;;;4.82;;
11222;SDS011;5668;52.012;8.724;2023-06-10T04:07:04;6.07;;;4.88;;
11222;SDS011;5668;52.012;8.724;2023-06-10T04:09:33;5.13;;;4.40;;
11222;SDS011;5668;52.012;8.724;2023-06-10T04:12:02;5.03;;;4.53;;
11222;SDS011;5668;52.012;8.724;2023-06-10T04:14:31;6.18;;;5.13;;
11222;SDS011;5668;52.012;8.724;2023-06-10T04:16:58;7.20;;;5.20;;
11222;SDS011;5668;52.012;8.724;2023-06-10T04:19:26;6.68;;;4.43;;
11222;SDS011;5668;52.012;8.724;2023-06-10T04:21:53;8.65;;;4.88;;
11222;SDS011;5668;52.012;8.724;2023-06-10T04:24:21;5.72;;;5.20;;
11222;SDS011;5668;52.012;8.724;2023-06-10T04:26:48;6.35;;;4.88;;
11222;SDS011;5668;52.012;8.724;2023-06-10T04:29:17;5.68;;;5.07;;
11222;SDS011;5668;52.012;8.724;2023-06-10T04:31:44;6.43;;;4.80;;
11222;SDS011;5668;52.012;8.724;2023-06-10T04:34:12;5.55;;;5.05;;
11222;SDS011;5668;52.012;8.724;2023-06-10T04:36:39;6.45;;;4.95;;
11222;SDS011;5668;52.012;8.724;2023-06-10T04:39:07;6.38;;;4.47;;
11222;SDS011;5668;52.012;8.724;2023-06-10T04:41:35;7.53;;;5.13;;
11222;SDS011;5668;52.012;8.724;2023-06-10T04:44:02;6.55;;;4.65;;
11222;SDS011;5668;52.012;8.724;2023-06-10T04:46:31;5.97;;;4.68;;
11222;SDS011;5668;52.012;8.724;2023-06-10T04:48:59;4.88;;;4.45;;
11222;SDS011;5668;52.012;8.724;2023-06-10T04:51:27;7.00;;;4.78;;
11222;SDS011;5668;52.012;8.724;2023-06-10T04:53:54;5.88;;;5.20;;
11222;SDS011;5668;52.012;8.724;2023-06-10T04:56:22;6.93;;;5.03;;
11222;SDS011;5668;52.012;8.724;2023-06-10T04:58:49;7.55;;;5.07;;
11222;SDS011;5668;52.012;8.724;2023-06-10T05:01:17;9.48;;;4.95;;
11222;SDS011;5668;52.012;8.724;2023-06-10T05:03:45;5.18;;;4.68;;
11222;SDS011;5668;52.012;8.724;2023-06-10T05:06:13;6.60;;;5.38;;
11222;SDS011;5668;52.012;8.724;2023-06-10T05:08:40;7.85;;;5.22;;
11222;SDS011;5668;52.012;8.724;2023-06-10T05:11:08;5.65;;;5.15;;
11222;SDS011;5668;52.012;8.724;2023-06-10T05:13:35;7.88;;;5.13;;
11222;SDS011;5668;52.012;8.724;2023-06-10T05:16:03;5.68;;;4.60;;
11222;SDS011;5668;52.012;8.724;2023-06-10T05:18:31;8.13;;;5.05;;
11222;SDS011;5668;52.012;8.724;2023-06-10T05:21:00;5.03;;;4.43;;
11222;SDS011;5668;52.012;8.724;2023-06-10T05:23:27;6.30;;;4.57;;
11222;SDS011;5668;52.012;8.724;2023-06-10T05:25:55;5.28;;;4.78;;
11222;SDS011;5668;52.012;8.724;2023-06-10T05:28:23;6.25;;;4.28;;
11222;SDS011;5668;52.012;8.724;2023-06-10T05:30:50;5.05;;;4.32;;
11222;SDS011;5668;52.012;8.724;2023-06-10T05:33:18;6.03;;;4.28;;
11222;SDS011;5668;52.012;8.724;2023-06-10T05:35:45;5.05;;;4.43;;
11222;SDS011;5668;52.012;8.724;2023-06-10T05:38:14;4.78;;;4.25;;
11222;SDS011;5668;52.012;8.724;2023-06-10T05:40:41;5.22;;;4.00;;
11222;SDS011;5668;52.012;8.724;2023-06-10T05:43:09;5.00;;;3.47;;
11222;SDS011;5668;52.012;8.724;2023-06-10T05:45:36;5.90;;;4.00;;
11222;SDS011;5668;52.012;8.724;2023-06-10T05:48:05;4.47;;;3.35;;
11222;SDS011;5668;52.012;8.724;2023-06-10T05:50:33;4.75;;;3.70;;
11222;SDS011;5668;52.012;8.724;2023-06-10T05:53:03;4.43;;;3.28;;
11222;SDS011;5668;52.012;8.724;2023-06-10T05:55:34;4.82;;;3.83;;
11222;SDS011;5668;52.012;8.724;2023-06-10T05:58:01;4.82;;;3.45;;
11222;SDS011;5668;52.012;8.724;2023-06-10T06:00:29;5.88;;;3.40;;
11222;SDS011;5668;52.012;8.724;2023-06-10T06:02:56;6.05;;;3.90;;
11222;SDS011;5668;52.012;8.724;2023-06-10T06:05:24;4.30;;;3.42;;
11222;SDS011;5668;52.012;8.724;2023-06-10T06:07:51;4.10;;;3.50;;
11222;SDS011;5668;52.012;8.724;2023-06-10T06:10:19;4.80;;;3.60;;
11222;SDS011;5668;52.012;8.724;2023-06-10T06:12:48;4.72;;;3.60;;
11222;SDS011;5668;52.012;8.724;2023-06-10T06:15:16;5.55;;;3.90;;
11222;SDS011;5668;52.012;8.724;2023-06-10T06:17:43;4.07;;;3.63;;
11222;SDS011;5668;52.012;8.724;2023-06-10T06:20:11;4.97;;;3.72;;
11222;SDS011;5668;52.012;8.724;2023-06-10T06:22:39;4.30;;;3.70;;
11222;SDS011;5668;52.012;8.724;2023-06-10T06:25:07;5.60;;;4.15;;
11222;SDS011;5668;52.012;8.724;2023-06-10T06:27:34;8.93;;;7.18;;
11222;SDS011;5668;52.012;8.724;2023-06-10T06:30:04;5.53;;;3.97;;
11222;SDS011;5668;52.012;8.724;2023-06-10T06:32:32;5.75;;;3.72;;
11222;SDS011;5668;52.012;8.724;2023-06-10T06:34:59;5.63;;;3.67;;
11222;SDS011;5668;52.012;8.724;2023-06-10T06:37:27;4.57;;;3.28;;
11222;SDS011;5668;52.012;8.724;2023-06-10T06:39:54;4.15;;;3.38;;
11222;SDS011;5668;52.012;8.724;2023-06-10T06:42:21;5.70;;;3.13;;
11222;SDS011;5668;52.012;8.724;2023-06-10T06:44:49;5.47;;;3.60;;
11222;SDS011;5668;52.012;8.724;2023-06-10T06:47:17;5.03;;;3.40;;
11222;SDS011;5668;52.012;8.724;2023-06-10T06:49:45;4.13;;;3.30;;
11222;SDS011;5668;52.012;8.724;2023-06-10T06:52:12;8.50;;;3.40;;
11222;SDS011;5668;52.012;8.724;2023-06-10T06:54:41;5.20;;;3.25;;
11222;SDS011;5668;52.012;8.724;2023-06-10T06:57:08;4.68;;;3.55;;
11222;SDS011;5668;52.012;8.724;2023-06-10T06:59:35;4.70;;;3.47;;
11222;SDS011;5668;52.012;8.724;2023-06-10T07:02:03;4.25;;;3.33;;
11222;SDS011;5668;52.012;8.724;2023-06-10T07:04:32;3.70;;;3.15;;
11222;SDS011;5668;52.012;8.724;2023-06-10T07:07:00;5.72;;;3.30;;
11222;SDS011;5668;52.012;8.724;2023-06-10T07:09:27;4.43;;;3.47;;
11222;SDS011;5668;52.012;8.724;2023-06-10T07:11:54;5.28;;;3.38;;
11222;SDS011;5668;52.012;8.724;2023-06-10T07:14:22;3.72;;;3.10;;
11222;SDS011;5668;52.012;8.724;2023-06-10T07:16:49;6.22;;;3.90;;
11222;SDS011;5668;52.012;8.724;2023-06-10T07:19:16;6.75;;;3.80;;
11222;SDS011;5668;52.012;8.724;2023-06-10T07:21:45;4.13;;;3.38;;
11222;SDS011;5668;52.012;8.724;2023-06-10T07:24:13;6.38;;;4.47;;
11222;SDS011;5668;52.012;8.724;2023-06-10T07:26:40;5.55;;;3.92;;
11222;SDS011;5668;52.012;8.724;2023-06-10T07:29:07;5.50;;;3.70;;
11222;SDS011;5668;52.012;8.724;2023-06-10T07:31:35;4.50;;;3.00;;
11222;SDS011;5668;52.012;8.724;2023-06-10T07:34:02;4.18;;;3.22;;
11222;SDS011;5668;52.012;8.724;2023-06-10T07:36:29;5.60;;;3.30;;
11222;SDS011;5668;52.012;8.724;2023-06-10T07:38:58;3.80;;;3.40;;
11222;SDS011;5668;52.012;8.724;2023-06-10T07:41:26;3.88;;;2.90;;
11222;SDS011;5668;52.012;8.724;2023-06-10T07:43:53;4.18;;;3.13;;
11222;SDS011;5668;52.012;8.724;2023-06-10T07:46:21;3.90;;;3.40;;
11222;SDS011;5668;52.012;8.724;2023-06-10T07:48:49;4.25;;;2.90;;
11222;SDS011;5668;52.012;8.724;2023-06-10T07:51:17;3.60;;;3.00;;
11222;SDS011;5668;52.012;8.724;2023-06-10T07:53:44;5.00;;;3.08;;
11222;SDS011;5668;52.012;8.724;2023-06-10T07:56:13;4.32;;;3.38;;
11222;SDS011;5668;52.012;8.724;2023-06-10T07:58:40;5.32;;;3.30;;
11222;SDS011;5668;52.012;8.724;2023-06-10T08:01:07;3.97;;;3.15;;
11222;SDS011;5668;52.012;8.724;2023-06-10T08:03:35;3.83;;;2.92;;
11222;SDS011;5668;52.012;8.724;2023-06-10T08:06:02;6.97;;;3.70;;
11222;SDS011;5668;52.012;8.724;2023-06-10T08:08:30;3.22;;;2.92;;
11222;SDS011;5668;52.012;8.724;2023-06-10T08:10:59;6.60;;;3.70;;
11222;SDS011;5668;52.012;8.724;2023-06-10T08:13:28;3.92;;;3.20;;
11222;SDS011;5668;52.012;8.724;2023-06-10T08:15:55;4.90;;;3.30;;
11222;SDS011;5668;52.012;8.724;2023-06-10T08:18:23;4.07;;;3.20;;
11222;SDS011;5668;52.012;8.724;2023-06-10T08:20:50;5.00;;;3.25;;
11222;SDS011;5668;52.012;8.724;2023-06-10T08:23:18;4.18;;;3.10;;
11222;SDS011;5668;52.012;8.724;2023-06-10T08:25:45;3.92;;;3.20;;
11222;SDS011;5668;52.012;8.724;2023-06-10T08:28:13;3.75;;;3.08;;
11222;SDS011;5668;52.012;8.724;2023-06-10T08:30:42;4.65;;;3.45;;
11222;SDS011;5668;52.012;8.724;2023-06-10T08:33:09;6.47;;;3.33;;
11222;SDS011;5668;52.012;8.724;2023-06-10T08:35:36;7.93;;;3.40;;
11222;SDS011;5668;52.012;8.724;2023-06-10T08:38:04;4.80;;;3.33;;
11222;SDS011;5668;52.012;8.724;2023-06-10T08:40:32;3.72;;;2.90;;
11222;SDS011;5668;52.012;8.724;2023-06-10T08:43:00;5.25;;;3.20;;
11222;SDS011;5668;52.012;8.724;2023-06-10T08:45:32;5.15;;;3.35;;
11222;SDS011;5668;52.012;8.724;2023-06-10T08:48:04;4.45;;;3.25;;
11222;SDS011;5668;52.012;8.724;2023-06-10T08:50:33;5.05;;;3.25;;
11222;SDS011;5668;52.012;8.724;2023-06-10T08:53:04;3.70;;;3.10;;
11222;SDS011;5668;52.012;8.724;2023-06-10T08:55:35;4.60;;;3.67;;
11222;SDS011;5668;52.012;8.724;2023-06-10T08:58:04;4.30;;;3.38;;
11222;SDS011;5668;52.012;8.724;2023-06-10T09:00:32;3.40;;;2.95;;
11222;SDS011;5668;52.012;8.724;2023-06-10T09:03:01;3.70;;;2.97;;
11222;SDS011;5668;52.012;8.724;2023-06-10T09:05:31;7.85;;;4.03;;
11222;SDS011;5668;52.012;8.724;2023-06-10T09:08:01;6.28;;;3.40;;
11222;SDS011;5668;52.012;8.724;2023-06-10T09:10:29;5.35;;;3.38;;
11222;SDS011;5668;52.012;8.724;2023-06-10T09:12:57;5.32;;;3.10;;
11222;SDS011;5668;52.012;8.724;2023-06-10T09:15:24;6.43;;;3.42;;
11222;SDS011;5668;52.012;8.724;2023-06-10T09:17:51;6.85;;;3.25;;
11222;SDS011;5668;52.012;8.724;2023-06-10T09:20:21;5.20;;;3.10;;
11222;SDS011;5668;52.012;8.724;2023-06-10T09:22:49;6.43;;;3.63;;
11222;SDS011;5668;52.012;8.724;2023-06-10T09:25:16;9.27;;;4.05;;
11222;SDS011;5668;52.012;8.724;2023-06-10T09:27:44;6.32;;;3.50;;
11222;SDS011;5668;52.012;8.724;2023-06-10T09:30:23;3.55;;;3.05;;
11222;SDS011;5668;52.012;8.724;2023-06-10T09:32:52;5.95;;;3.08;;
11222;SDS011;5668;52.012;8.724;2023-06-10T09:35:22;4.22;;;3.00;;
11222;SDS011;5668;52.012;8.724;2023-06-10T09:37:51;5.53;;;3.22;;
11222;SDS011;5668;52.012;8.724;2023-06-10T09:40:19;3.28;;;2.63;;
11222;SDS011;5668;52.012;8.724;2023-06-10T09:42:52;4.93;;;3.03;;
11222;SDS011;5668;52.012;8.724;2023-06-10T09:45:21;3.85;;;3.10;;
11222;SDS011;5668;52.012;8.724;2023-06-10T09:47:51;3.42;;;2.92;;
11222;SDS011;5668;52.012;8.724;2023-06-10T09:50:19;3.90;;;2.70;;
11222;SDS011;5668;52.012;8.724;2023-06-10T09:52:49;5.20;;;3.20;;
11222;SDS011;5668;52.012;8.724;2023-06-10T09:55:17;4.30;;;3.13;;
11222;SDS011;5668;52.012;8.724;2023-06-10T09:57:45;4.72;;;3.17;;
11222;SDS011;5668;52.012;8.724;2023-06-10T10:00:21;5.13;;;3.10;;
11222;SDS011;5668;52.012;8.724;2023-06-10T10:02:51;3.40;;;3.00;;
11222;SDS011;5668;52.012;8.724;2023-06-10T10:05:20;4.88;;;3.00;;
11222;SDS011;5668;52.012;8.724;2023-06-10T10:07:49;4.63;;;3.25;;
11222;SDS011;5668;52.012;8.724;2023-06-10T10:10:18;3.38;;;2.97;;
11222;SDS011;5668;52.012;8.724;2023-06-10T10:12:47;3.65;;;2.83;;
11222;SDS011;5668;52.012;8.724;2023-06-10T10:15:18;4.55;;;3.40;;
11222;SDS011;5668;52.012;8.724;2023-06-10T10:17:49;3.53;;;3.20;;
11222;SDS011;5668;52.012;8.724;2023-06-10T10:20:20;4.45;;;3.17;;
11222;SDS011;5668;52.012;8.724;2023-06-10T10:22:54;4.35;;;3.20;;
11222;SDS011;5668;52.012;8.724;2023-06-10T10:25:25;5.28;;;2.92;;
11222;SDS011;5668;52.012;8.724;2023-06-10T10:27:56;4.10;;;3.05;;
11222;SDS011;5668;52.012;8.724;2023-06-10T10:30:28;4.47;;;3.03;;
11222;SDS011;5668;52.012;8.724;2023-06-10T10:32:57;3.30;;;2.97;;
11222;SDS011;5668;52.012;8.724;2023-06-10T10:35:30;4.97;;;3.30;;
11222;SDS011;5668;52.012;8.724;2023-06-10T10:38:00;3.42;;;3.13;;
11222;SDS011;5668;52.012;8.724;2023-06-10T10:40:28;3.72;;;3.00;;
11222;SDS011;5668;52.012;8.724;2023-06-10T10:42:57;4.15;;;3.20;;
11222;SDS011;5668;52.012;8.724;2023-06-10T10:45:27;3.53;;;2.97;;
11222;SDS011;5668;52.012;8.724;2023-06-10T10:47:55;4.57;;;3.45;;
11222;SDS011;5668;52.012;8.724;2023-06-10T10:50:23;4.75;;;3.20;;
11222;SDS011;5668;52.012;8.724;2023-06-10T10:52:51;4.18;;;3.20;;
11222;SDS011;5668;52.012;8.724;2023-06-10T10:55:22;5.80;;;3.60;;
11222;SDS011;5668;52.012;8.724;2023-06-10T10:57:54;4.50;;;3.45;;
11222;SDS011;5668;52.012;8.724;2023-06-10T11:00:28;5.10;;;3.60;;
11222;SDS011;5668;52.012;8.724;2023-06-10T11:03:02;4.63;;;3.40;;
11222;SDS011;5668;52.012;8.724;2023-06-10T11:05:37;3.80;;;3.40;;
11222;SDS011;5668;52.012;8.724;2023-06-10T11:08:07;4.28;;;3.55;;
11222;SDS011;5668;52.012;8.724;2023-06-10T11:10:36;5.45;;;3.20;;
11222;SDS011;5668;52.012;8.724;2023-06-10T11:13:08;4.47;;;3.60;;
11222;SDS011;5668;52.012;8.724;2023-06-10T11:15:39;3.90;;;3.20;;
11222;SDS011;5668;52.012;8.724;2023-06-10T11:18:10;4.68;;;3.40;;
11222;SDS011;5668;52.012;8.724;2023-06-10T11:20:53;3.83;;;3.20;;
11222;SDS011;5668;52.012;8.724;2023-06-10T11:23:38;4.43;;;3.08;;
11222;SDS011;5668;52.012;8.724;2023-06-10T11:26:12;4.60;;;3.25;;
11222;SDS011;5668;52.012;8.724;2023-06-10T11:31:31;4.30;;;3.53;;
11222;SDS011;5668;52.012;8.724;2023-06-10T11:33:59;5.32;;;4.03;;
11222;SDS011;5668;52.012;8.724;2023-06-10T11:36:29;7.35;;;3.80;;
11222;SDS011;5668;52.012;8.724;2023-06-10T11:38:58;4.18;;;3.17;;
11222;SDS011;5668;52.012;8.724;2023-06-10T11:41:28;5.05;;;3.40;;
11222;SDS011;5668;52.012;8.724;2023-06-10T11:43:57;3.85;;;3.30;;
11222;SDS011;5668;52.012;8.724;2023-06-10T11:46:29;4.25;;;3.60;;
11222;SDS011;5668;52.012;8.724;2023-06-10T11:48:57;5.07;;;3.70;;
11222;SDS011;5668;52.012;8.724;2023-06-10T11:51:26;3.63;;;3.03;;
11222;SDS011;5668;52.012;8.724;2023-06-10T11:53:54;3.60;;;3.30;;
11222;SDS011;5668;52.012;8.724;2023-06-10T11:56:22;5.85;;;3.30;;
11222;SDS011;5668;52.012;8.724;2023-06-10T11:58:54;3.92;;;3.53;;
11222;SDS011;5668;52.012;8.724;2023-06-10T12:01:22;4.72;;;3.33;;
11222;SDS011;5668;52.012;8.724;2023-06-10T12:03:57;3.30;;;3.00;;
11222;SDS011;5668;52.012;8.724;2023-06-10T12:06:26;3.67;;;3.15;;
11222;SDS011;5668;52.012;8.724;2023-06-10T12:09:03;4.63;;;3.45;;
11222;SDS011;5668;52.012;8.724;2023-06-10T12:11:30;3.50;;;3.20;;
11222;SDS011;5668;52.012;8.724;2023-06-10T12:14:00;3.88;;;3.40;;
11222;SDS011;5668;52.012;8.724;2023-06-10T12:16:29;5.13;;;3.17;;
11222;SDS011;5668;52.012;8.724;2023-06-10T12:19:00;6.63;;;3.47;;
11222;SDS011;5668;52.012;8.724;2023-06-10T12:21:29;3.90;;;3.30;;
11222;SDS011;5668;52.012;8.724;2023-06-10T12:24:05;4.93;;;3.22;;
11222;SDS011;5668;52.012;8.724;2023-06-10T12:26:34;5.10;;;3.15;;
11222;SDS011;5668;52.012;8.724;2023-06-10T12:29:04;3.65;;;3.28;;
11222;SDS011;5668;52.012;8.724;2023-06-10T12:31:54;3.92;;;3.28;;
11222;SDS011;5668;52.012;8.724;2023-06-10T12:34:30;4.82;;;3.38;;
11222;SDS011;5668;52.012;8.724;2023-06-10T12:36:59;3.55;;;3.10;;
11222;SDS011;5668;52.012;8.724;2023-06-10T12:39:29;3.72;;;3.30;;
11222;SDS011;5668;52.012;8.724;2023-06-10T12:41:57;4.80;;;3.25;;
11222;SDS011;5668;52.012;8.724;2023-06-10T12:44:29;5.38;;;3.13;;
11222;SDS011;5668;52.012;8.724;2023-06-10T12:46:57;3.75;;;3.13;;
11222;SDS011;5668;52.012;8.724;2023-06-10T12:49:25;5.88;;;3.60;;
11222;SDS011;5668;52.012;8.724;2023-06-10T12:51:53;3.75;;;3.45;;
11222;SDS011;5668;52.012;8.724;2023-06-10T12:54:20;4.25;;;3.03;;
11222;SDS011;5668;52.012;8.724;2023-06-10T12:56:48;3.80;;;3.50;;
11222;SDS011;5668;52.012;8.724;2023-06-10T12:59:16;3.53;;;3.10;;
11222;SDS011;5668;52.012;8.724;2023-06-10T13:01:44;3.53;;;3.20;;
11222;SDS011;5668;52.012;8.724;2023-06-10T13:04:17;3.95;;;3.55;;
11222;SDS011;5668;52.012;8.724;2023-06-10T13:06:44;4.10;;;3.28;;
11222;SDS011;5668;52.012;8.724;2023-06-10T13:09:12;4.85;;;3.58;;
11222;SDS011;5668;52.012;8.724;2023-06-10T13:11:40;4.13;;;3.72;;
11222;SDS011;5668;52.012;8.724;2023-06-10T13:14:09;4.07;;;3.50;;
11222;SDS011;5668;52.012;8.724;2023-06-10T13:16:37;5.05;;;3.17;;
11222;SDS011;5668;52.012;8.724;2023-06-10T13:19:06;4.53;;;3.40;;
11222;SDS011;5668;52.012;8.724;2023-06-10T13:21:33;7.82;;;3.80;;
11222;SDS011;5668;52.012;8.724;2023-06-10T13:24:02;4.43;;;3.72;;
11222;SDS011;5668;52.012;8.724;2023-06-10T13:26:29;4.70;;;3.63;;
11222;SDS011;5668;52.012;8.724;2023-06-10T13:28:57;6.13;;;4.13;;
11222;SDS011;5668;52.012;8.724;2023-06-10T13:31:24;4.65;;;3.60;;
11222;SDS011;5668;52.012;8.724;2023-06-10T13:33:51;4.38;;;3.25;;
11222;SDS011;5668;52.012;8.724;2023-06-10T13:36:20;4.35;;;3.60;;
11222;SDS011;5668;52.012;8.724;2023-06-10T13:38:47;4.97;;;3.75;;
11222;SDS011;5668;52.012;8.724;2023-06-10T13:41:15;4.35;;;3.60;;
11222;SDS011;5668;52.012;8.724;2023-06-10T13:43:42;4.47;;;4.07;;
11222;SDS011;5668;52.012;8.724;2023-06-10T13:46:09;4.47;;;3.78;;
11222;SDS011;5668;52.012;8.724;2023-06-10T13:48:37;6.03;;;3.63;;
11222;SDS011;5668;52.012;8.724;2023-06-10T13:51:05;4.40;;;4.00;;
11222;SDS011;5668;52.012;8.724;2023-06-10T13:53:35;4.78;;;3.95;;
11222;SDS011;5668;52.012;8.724;2023-06-10T13:56:03;7.18;;;3.80;;
11222;SDS011;5668;52.012;8.724;2023-06-10T13:58:30;4.75;;;3.97;;
11222;SDS011;5668;52.012;8.724;2023-06-10T14:00:58;4.72;;;4.25;;
11222;SDS011;5668;52.012;8.724;2023-06-10T14:03:26;4.60;;;4.20;;
11222;SDS011;5668;52.012;8.724;2023-06-10T14:05:53;5.40;;;4.25;;
11222;SDS011;5668;52.012;8.724;2023-06-10T14:08:21;4.50;;;4.10;;
11222;SDS011;5668;52.012;8.724;2023-06-10T14:10:50;5.05;;;4.18;;
11222;SDS011;5668;52.012;8.724;2023-06-10T14:13:17;6.03;;;4.55;;
11222;SDS011;5668;52.012;8.724;2023-06-10T14:15:44;5.57;;;4.15;;
11222;SDS011;5668;52.012;8.724;2023-06-10T14:18:12;5.82;;;4.38;;
11222;SDS011;5668;52.012;8.724;2023-06-10T14:20:39;5.90;;;4.28;;
11222;SDS011;5668;52.012;8.724;2023-06-10T14:23:07;6.30;;;4.25;;
11222;SDS011;5668;52.012;8.724;2023-06-10T14:25:34;5.47;;;4.60;;
11222;SDS011;5668;52.012;8.724;2023-06-10T14:28:03;6.20;;;4.40;;
11222;SDS011;5668;52.012;8.724;2023-06-10T14:30:31;4.90;;;4.00;;
11222;SDS011;5668;52.012;8.724;2023-06-10T14:32:58;7.53;;;4.10;;
11222;SDS011;5668;52.012;8.724;2023-06-10T14:35:25;4.35;;;3.95;;
11222;SDS011;5668;52.012;8.724;2023-06-10T14:37:53;4.50;;;4.07;;
11222;SDS011;5668;52.012;8.724;2023-06-10T14:40:21;6.28;;;4.38;;
11222;SDS011;5668;52.012;8.724;2023-06-10T14:42:49;4.68;;;4.30;;
11222;SDS011;5668;52.012;8.724;2023-06-10T14:45:18;4.53;;;4.13;;
11222;SDS011;5668;52.012;8.724;2023-06-10T14:47:46;5.00;;;4.10;;
11222;SDS011;5668;52.012;8.724;2023-06-10T14:50:14;4.78;;;4.22;;
11222;SDS011;5668;52.012;8.724;2023-06-10T14:52:42;4.57;;;4.18;;
11222;SDS011;5668;52.012;8.724;2023-06-10T14:55:09;7.22;;;4.70;;
11222;SDS011;5668;52.012;8.724;2023-06-10T14:57:36;4.97;;;4.45;;
11222;SDS011;5668;52.012;8.724;2023-06-10T15:00:04;4.75;;;4.25;;
11222;SDS011;5668;52.012;8.724;2023-06-10T15:02:35;5.60;;;4.55;;
11222;SDS011;5668;52.012;8.724;2023-06-10T15:05:02;4.80;;;4.10;;
11222;SDS011;5668;52.012;8.724;2023-06-10T15:07:30;4.80;;;4.28;;
11222;SDS011;5668;52.012;8.724;2023-06-10T15:09:57;4.85;;;4.40;;
11222;SDS011;5668;52.012;8.724;2023-06-10T15:12:25;4.90;;;4.50;;